This is the latest recevied weather packets stored in our database for station/object WP3OF-5. If no packets are shown the sender has not sent any weather packets the latest 10 day(s).
| Time | Temp. | Humidity | Pressure | Rain* | Wind** | Luminosity | Snow |
|---|---|---|---|---|---|---|---|
| 1777663838 | 28.33° C | 75% | 1013.5 hPa | 0 mm | - | - | - |
| 1777663534 | 28.33° C | 77% | 1013.6 hPa | 0 mm | - | - | - |
| 1777663232 | 28.33° C | 75% | 1013.8 hPa | 0 mm | - | - | - |
| 1777662928 | 29.44° C | 75% | 1013.7 hPa | 0 mm | - | - | - |
| 1777662626 | 29.44° C | 74% | 1013.6 hPa | 0 mm | - | - | - |
| 1777662321 | 28.33° C | 76% | 1013.5 hPa | 0 mm | - | - | - |
| 1777662017 | 27.78° C | 77% | 1013.2 hPa | 0 mm | - | - | - |
| 1777661713 | 28.33° C | 76% | 1013.5 hPa | 0 mm | - | - | - |
| 1777661409 | 28.89° C | 74% | 1013.8 hPa | 0 mm | - | - | - |
| 1777661106 | 28.89° C | 76% | 1013.3 hPa | 0 mm | - | - | - |
| 1777660800 | 29.44° C | 73% | 1013.6 hPa | 0 mm | - | - | - |
| 1777660498 | 30.56° C | 71% | 1013.6 hPa | 0 mm | - | - | - |
| 1777660194 | 31.11° C | 68% | 1013.6 hPa | 0 mm | - | - | - |
| 1777659891 | 32.22° C | 65% | 1013.5 hPa | 0 mm | - | - | - |
| 1777659587 | 32.22° C | 65% | 1013.6 hPa | 0 mm | - | - | - |
| 1777659285 | 31.67° C | 68% | 1013.9 hPa | 0 mm | - | - | - |
| 1777658982 | 31.11° C | 68% | 1013.9 hPa | 0 mm | - | - | - |
| 1777658679 | 31.67° C | 67% | 1014 hPa | 0 mm | - | - | - |
| 1777658375 | 31.67° C | 68% | 1014.1 hPa | 0 mm | - | - | - |
| 1777658072 | 31.11° C | 68% | 1014.1 hPa | 0 mm | - | - | - |
| 1777657769 | 30.56° C | 70% | 1014.1 hPa | 0 mm | - | - | - |
| 1777657467 | 30.56° C | 69% | 1014.1 hPa | 0 mm | - | - | - |
| 1777657164 | 32.22° C | 64% | 1014.1 hPa | 0 mm | - | - | - |
| 1777656861 | 32.22° C | 63% | 1014.2 hPa | 0 mm | - | - | - |
| 1777656557 | 31.67° C | 60% | 1014.3 hPa | 0 mm | - | - | - |
* Rain latest hour (hover to see other rain measurements)
** Current wind speed in m/s (hover to see current wind gust speed)